sensor_id;sensor_type;location;lat;lon;timestamp;pressure;altitude;pressure_sealevel;temperature;humidity
37170;BME280;23062;13.952;100.608;2023-05-16T00:01:34;1010.88;;;32.13;59.99
37170;BME280;23062;13.952;100.608;2023-05-16T00:06:00;1010.88;;;32.15;59.88
37170;BME280;23062;13.952;100.608;2023-05-16T00:10:28;1010.88;;;32.12;59.54
37170;BME280;23062;13.952;100.608;2023-05-16T00:14:53;1011.00;;;32.16;59.24
37170;BME280;23062;13.952;100.608;2023-05-16T00:19:21;1011.09;;;32.16;59.29
37170;BME280;23062;13.952;100.608;2023-05-16T00:23:48;1011.17;;;32.17;59.21
37170;BME280;23062;13.952;100.608;2023-05-16T00:28:15;1011.17;;;32.20;59.07
37170;BME280;23062;13.952;100.608;2023-05-16T00:32:43;1011.25;;;32.17;59.15
37170;BME280;23062;13.952;100.608;2023-05-16T00:37:11;1011.38;;;32.20;58.90
37170;BME280;23062;13.952;100.608;2023-05-16T00:41:53;1011.44;;;32.21;58.73
37170;BME280;23062;13.952;100.608;2023-05-16T00:46:26;1011.53;;;32.24;58.66
37170;BME280;23062;13.952;100.608;2023-05-16T00:50:56;1011.58;;;32.25;58.74
37170;BME280;23062;13.952;100.608;2023-05-16T00:55:31;1011.69;;;32.26;58.83
37170;BME280;23062;13.952;100.608;2023-05-16T01:00:18;1011.78;;;32.28;58.66
37170;BME280;23062;13.952;100.608;2023-05-16T01:04:55;1011.85;;;32.27;58.52
37170;BME280;23062;13.952;100.608;2023-05-16T01:28:20;1012.15;;;32.33;61.64
37170;BME280;23062;13.952;100.608;2023-05-16T01:37:56;1012.16;;;32.27;60.82
37170;BME280;23062;13.952;100.608;2023-05-16T01:42:25;1012.23;;;32.29;60.43
37170;BME280;23062;13.952;100.608;2023-05-16T01:46:48;1012.34;;;32.29;60.59
37170;BME280;23062;13.952;100.608;2023-05-16T01:51:17;1012.39;;;32.35;60.84
37170;BME280;23062;13.952;100.608;2023-05-16T01:55:47;1012.46;;;32.37;61.06
37170;BME280;23062;13.952;100.608;2023-05-16T02:00:13;1012.42;;;32.40;60.83
37170;BME280;23062;13.952;100.608;2023-05-16T02:04:42;1012.45;;;32.41;60.25
37170;BME280;23062;13.952;100.608;2023-05-16T02:09:08;1012.50;;;32.41;59.82
37170;BME280;23062;13.952;100.608;2023-05-16T02:13:33;1012.55;;;32.44;59.50
37170;BME280;23062;13.952;100.608;2023-05-16T02:18:00;1012.51;;;32.46;59.24
37170;BME280;23062;13.952;100.608;2023-05-16T02:22:28;1012.50;;;32.47;59.02
37170;BME280;23062;13.952;100.608;2023-05-16T02:26:54;1012.57;;;32.50;58.94
37170;BME280;23062;13.952;100.608;2023-05-16T02:35:54;1012.60;;;32.51;57.72
37170;BME280;23062;13.952;100.608;2023-05-16T02:40:26;1012.56;;;32.52;57.59
37170;BME280;23062;13.952;100.608;2023-05-16T02:44:52;1012.56;;;32.53;57.71
37170;BME280;23062;13.952;100.608;2023-05-16T02:49:18;1012.54;;;32.57;57.70
37170;BME280;23062;13.952;100.608;2023-05-16T02:53:43;1012.55;;;32.58;57.72
37170;BME280;23062;13.952;100.608;2023-05-16T02:58:09;1012.55;;;32.58;57.51
37170;BME280;23062;13.952;100.608;2023-05-16T03:02:42;1012.56;;;32.63;56.93
37170;BME280;23062;13.952;100.608;2023-05-16T03:07:08;1012.51;;;32.63;56.94
37170;BME280;23062;13.952;100.608;2023-05-16T03:11:34;1012.54;;;32.65;56.83
37170;BME280;23062;13.952;100.608;2023-05-16T03:15:59;1012.58;;;32.69;57.16
37170;BME280;23062;13.952;100.608;2023-05-16T03:20:25;1012.61;;;32.71;56.98
37170;BME280;23062;13.952;100.608;2023-05-16T03:24:52;1012.50;;;32.71;56.76
37170;BME280;23062;13.952;100.608;2023-05-16T03:29:21;1012.42;;;32.75;56.19
37170;BME280;23062;13.952;100.608;2023-05-16T03:33:52;1012.38;;;32.78;56.29
37170;BME280;23062;13.952;100.608;2023-05-16T03:38:17;1012.31;;;32.83;56.50
37170;BME280;23062;13.952;100.608;2023-05-16T03:42:49;1012.32;;;32.86;55.33
37170;BME280;23062;13.952;100.608;2023-05-16T03:47:14;1012.23;;;32.87;55.80
37170;BME280;23062;13.952;100.608;2023-05-16T03:51:43;1012.16;;;32.89;55.68
37170;BME280;23062;13.952;100.608;2023-05-16T03:56:13;1012.14;;;32.92;55.30
37170;BME280;23062;13.952;100.608;2023-05-16T04:00:39;1012.09;;;32.93;54.97
37170;BME280;23062;13.952;100.608;2023-05-16T04:05:11;1012.06;;;32.97;54.73
37170;BME280;23062;13.952;100.608;2023-05-16T04:09:42;1011.89;;;32.99;54.09
37170;BME280;23062;13.952;100.608;2023-05-16T04:14:09;1011.92;;;33.07;54.08
37170;BME280;23062;13.952;100.608;2023-05-16T04:18:34;1011.79;;;33.13;54.04
37170;BME280;23062;13.952;100.608;2023-05-16T04:23:01;1011.76;;;33.21;53.30
37170;BME280;23062;13.952;100.608;2023-05-16T04:27:28;1011.62;;;33.20;53.32
37170;BME280;23062;13.952;100.608;2023-05-16T04:31:54;1011.56;;;33.21;52.77
37170;BME280;23062;13.952;100.608;2023-05-16T04:36:20;1011.43;;;33.20;52.60
37170;BME280;23062;13.952;100.608;2023-05-16T04:40:46;1011.42;;;33.21;52.32
37170;BME280;23062;13.952;100.608;2023-05-16T04:45:15;1011.36;;;33.26;52.01
37170;BME280;23062;13.952;100.608;2023-05-16T04:49:48;1011.24;;;33.26;52.02
37170;BME280;23062;13.952;100.608;2023-05-16T04:54:14;1011.08;;;33.26;51.85
37170;BME280;23062;13.952;100.608;2023-05-16T04:58:40;1011.03;;;33.26;52.17
37170;BME280;23062;13.952;100.608;2023-05-16T05:03:08;1010.85;;;33.30;51.95
37170;BME280;23062;13.952;100.608;2023-05-16T05:07:34;1010.76;;;33.33;51.87
37170;BME280;23062;13.952;100.608;2023-05-16T05:12:01;1010.71;;;33.41;50.93
37170;BME280;23062;13.952;100.608;2023-05-16T05:16:31;1010.65;;;33.44;50.68
37170;BME280;23062;13.952;100.608;2023-05-16T05:20:56;1010.57;;;33.46;50.81
37170;BME280;23062;13.952;100.608;2023-05-16T05:25:21;1010.53;;;33.46;50.98
37170;BME280;23062;13.952;100.608;2023-05-16T05:29:46;1010.44;;;33.50;50.55
37170;BME280;23062;13.952;100.608;2023-05-16T05:34:12;1010.38;;;33.55;50.59
37170;BME280;23062;13.952;100.608;2023-05-16T05:38:38;1010.41;;;33.52;50.85
37170;BME280;23062;13.952;100.608;2023-05-16T05:43:04;1010.32;;;33.50;50.76
37170;BME280;23062;13.952;100.608;2023-05-16T05:47:30;1010.22;;;33.52;50.82
37170;BME280;23062;13.952;100.608;2023-05-16T05:51:58;1010.08;;;33.56;50.79
37170;BME280;23062;13.952;100.608;2023-05-16T05:56:29;1010.09;;;33.57;50.47
37170;BME280;23062;13.952;100.608;2023-05-16T06:00:58;1009.91;;;33.66;47.91
37170;BME280;23062;13.952;100.608;2023-05-16T06:05:23;1009.87;;;33.68;48.52
37170;BME280;23062;13.952;100.608;2023-05-16T06:09:49;1009.81;;;33.63;48.93
37170;BME280;23062;13.952;100.608;2023-05-16T06:14:17;1009.75;;;33.63;48.49
37170;BME280;23062;13.952;100.608;2023-05-16T06:18:45;1009.61;;;33.61;48.89
37170;BME280;23062;13.952;100.608;2023-05-16T06:23:14;1009.61;;;33.61;49.26
37170;BME280;23062;13.952;100.608;2023-05-16T06:27:39;1009.52;;;33.66;48.55
37170;BME280;23062;13.952;100.608;2023-05-16T06:32:09;1009.44;;;33.67;48.30
37170;BME280;23062;13.952;100.608;2023-05-16T06:36:38;1009.38;;;33.65;48.43
37170;BME280;23062;13.952;100.608;2023-05-16T06:41:04;1009.28;;;33.65;47.94
37170;BME280;23062;13.952;100.608;2023-05-16T06:45:30;1009.15;;;33.66;48.06
37170;BME280;23062;13.952;100.608;2023-05-16T06:49:55;1009.04;;;33.70;47.41
37170;BME280;23062;13.952;100.608;2023-05-16T06:54:21;1008.92;;;33.70;47.21
37170;BME280;23062;13.952;100.608;2023-05-16T06:58:46;1008.87;;;33.69;47.14
37170;BME280;23062;13.952;100.608;2023-05-16T07:03:12;1008.71;;;33.73;47.18
37170;BME280;23062;13.952;100.608;2023-05-16T07:07:38;1008.58;;;33.73;46.61
37170;BME280;23062;13.952;100.608;2023-05-16T07:12:03;1008.55;;;33.72;46.84
37170;BME280;23062;13.952;100.608;2023-05-16T07:16:32;1008.45;;;33.77;46.34
37170;BME280;23062;13.952;100.608;2023-05-16T07:20:58;1008.47;;;33.79;45.96
37170;BME280;23062;13.952;100.608;2023-05-16T07:25:27;1008.40;;;33.80;45.67
37170;BME280;23062;13.952;100.608;2023-05-16T07:29:53;1008.32;;;33.83;45.21
37170;BME280;23062;13.952;100.608;2023-05-16T07:34:26;1008.30;;;33.82;45.09
37170;BME280;23062;13.952;100.608;2023-05-16T07:38:52;1008.29;;;33.81;45.57
37170;BME280;23062;13.952;100.608;2023-05-16T07:43:17;1008.20;;;33.84;45.69
37170;BME280;23062;13.952;100.608;2023-05-16T07:47:45;1008.04;;;33.88;44.85
37170;BME280;23062;13.952;100.608;2023-05-16T07:52:11;1007.93;;;33.91;44.83
37170;BME280;23062;13.952;100.608;2023-05-16T07:56:44;1007.91;;;33.94;44.62
37170;BME280;23062;13.952;100.608;2023-05-16T08:01:09;1007.92;;;33.95;44.96
37170;BME280;23062;13.952;100.608;2023-05-16T08:05:35;1007.76;;;33.93;44.73
37170;BME280;23062;13.952;100.608;2023-05-16T08:10:03;1007.72;;;34.01;44.75
37170;BME280;23062;13.952;100.608;2023-05-16T08:14:32;1007.67;;;34.08;44.25
37170;BME280;23062;13.952;100.608;2023-05-16T08:18:58;1007.70;;;34.11;44.53
37170;BME280;23062;13.952;100.608;2023-05-16T08:23:23;1007.66;;;34.13;44.95
37170;BME280;23062;13.952;100.608;2023-05-16T08:27:49;1007.57;;;34.14;45.23
37170;BME280;23062;13.952;100.608;2023-05-16T08:32:15;1007.53;;;34.14;45.71
37170;BME280;23062;13.952;100.608;2023-05-16T08:36:43;1007.54;;;34.16;45.69
37170;BME280;23062;13.952;100.608;2023-05-16T08:41:13;1007.51;;;34.15;45.85
37170;BME280;23062;13.952;100.608;2023-05-16T08:45:41;1007.53;;;34.18;45.82
37170;BME280;23062;13.952;100.608;2023-05-16T08:50:15;1007.54;;;34.17;46.16
37170;BME280;23062;13.952;100.608;2023-05-16T08:54:45;1007.52;;;34.18;46.45
37170;BME280;23062;13.952;100.608;2023-05-16T08:59:11;1007.53;;;34.19;46.47
37170;BME280;23062;13.952;100.608;2023-05-16T09:03:40;1007.48;;;34.19;46.35
37170;BME280;23062;13.952;100.608;2023-05-16T09:08:10;1007.52;;;34.18;46.42
37170;BME280;23062;13.952;100.608;2023-05-16T09:12:37;1007.49;;;34.21;46.53
37170;BME280;23062;13.952;100.608;2023-05-16T09:17:08;1007.38;;;34.15;47.11
37170;BME280;23062;13.952;100.608;2023-05-16T09:21:37;1007.33;;;34.14;46.99
37170;BME280;23062;13.952;100.608;2023-05-16T09:26:08;1007.26;;;34.12;47.09
37170;BME280;23062;13.952;100.608;2023-05-16T09:30:36;1007.23;;;34.11;46.96
37170;BME280;23062;13.952;100.608;2023-05-16T09:35:06;1007.28;;;34.10;47.04
37170;BME280;23062;13.952;100.608;2023-05-16T09:39:32;1007.25;;;34.10;46.91
37170;BME280;23062;13.952;100.608;2023-05-16T09:44:07;1007.18;;;34.08;46.97
37170;BME280;23062;13.952;100.608;2023-05-16T09:48:33;1007.18;;;34.08;46.59
37170;BME280;23062;13.952;100.608;2023-05-16T09:52:59;1007.26;;;34.07;46.63
37170;BME280;23062;13.952;100.608;2023-05-16T09:57:25;1007.25;;;34.09;46.12
37170;BME280;23062;13.952;100.608;2023-05-16T10:01:53;1007.35;;;34.07;46.51
37170;BME280;23062;13.952;100.608;2023-05-16T10:06:19;1007.41;;;34.08;46.68
37170;BME280;23062;13.952;100.608;2023-05-16T10:10:45;1007.47;;;34.07;46.82
37170;BME280;23062;13.952;100.608;2023-05-16T10:15:13;1007.54;;;34.06;47.05
37170;BME280;23062;13.952;100.608;2023-05-16T10:19:41;1007.57;;;34.04;47.10
37170;BME280;23062;13.952;100.608;2023-05-16T10:24:09;1007.66;;;34.03;47.09
37170;BME280;23062;13.952;100.608;2023-05-16T10:28:39;1007.76;;;34.03;47.41
37170;BME280;23062;13.952;100.608;2023-05-16T10:33:06;1007.73;;;34.03;47.28
37170;BME280;23062;13.952;100.608;2023-05-16T10:37:31;1007.75;;;34.01;47.19
37170;BME280;23062;13.952;100.608;2023-05-16T10:41:57;1007.88;;;34.00;47.28
37170;BME280;23062;13.952;100.608;2023-05-16T10:46:28;1007.87;;;34.00;47.45
37170;BME280;23062;13.952;100.608;2023-05-16T10:50:51;1007.93;;;34.20;47.25
37170;BME280;23062;13.952;100.608;2023-05-16T10:55:17;1007.93;;;34.26;47.16
37170;BME280;23062;13.952;100.608;2023-05-16T10:59:44;1007.86;;;34.29;47.27
37170;BME280;23062;13.952;100.608;2023-05-16T11:04:12;1007.90;;;34.30;47.27
37170;BME280;23062;13.952;100.608;2023-05-16T11:08:56;1007.99;;;34.30;47.35
37170;BME280;23062;13.952;100.608;2023-05-16T11:13:07;1007.95;;;34.28;47.26
37170;BME280;23062;13.952;100.608;2023-05-16T11:17:37;1008.01;;;34.26;47.02
37170;BME280;23062;13.952;100.608;2023-05-16T11:22:22;1008.16;;;34.24;47.49
37170;BME280;23062;13.952;100.608;2023-05-16T11:26:53;1008.19;;;34.29;47.05
37170;BME280;23062;13.952;100.608;2023-05-16T11:31:20;1008.30;;;34.29;46.72
37170;BME280;23062;13.952;100.608;2023-05-16T11:36:06;1008.28;;;34.25;46.90
37170;BME280;23062;13.952;100.608;2023-05-16T11:40:40;1008.35;;;34.28;46.42
37170;BME280;23062;13.952;100.608;2023-05-16T11:45:09;1008.43;;;34.22;45.87
37170;BME280;23062;13.952;100.608;2023-05-16T11:49:38;1008.41;;;34.20;45.82
37170;BME280;23062;13.952;100.608;2023-05-16T11:54:04;1008.42;;;34.23;45.95
37170;BME280;23062;13.952;100.608;2023-05-16T11:58:30;1008.52;;;34.13;45.55
37170;BME280;23062;13.952;100.608;2023-05-16T12:02:59;1008.64;;;33.94;46.01
37170;BME280;23062;13.952;100.608;2023-05-16T12:07:30;1008.71;;;33.91;45.94
37170;BME280;23062;13.952;100.608;2023-05-16T12:11:57;1008.79;;;33.88;46.04
37170;BME280;23062;13.952;100.608;2023-05-16T12:16:23;1008.88;;;33.88;46.00
37170;BME280;23062;13.952;100.608;2023-05-16T12:20:51;1008.96;;;33.86;46.21
37170;BME280;23062;13.952;100.608;2023-05-16T12:25:30;1009.10;;;33.86;46.41
37170;BME280;23062;13.952;100.608;2023-05-16T12:29:57;1009.21;;;33.85;46.36
37170;BME280;23062;13.952;100.608;2023-05-16T12:34:27;1009.35;;;33.86;46.31
37170;BME280;23062;13.952;100.608;2023-05-16T12:39:02;1009.35;;;33.86;46.52
37170;BME280;23062;13.952;100.608;2023-05-16T12:43:30;1009.43;;;33.85;46.60
37170;BME280;23062;13.952;100.608;2023-05-16T12:47:56;1009.52;;;33.83;46.82
37170;BME280;23062;13.952;100.608;2023-05-16T12:52:22;1009.56;;;33.83;47.10
37170;BME280;23062;13.952;100.608;2023-05-16T12:56:48;1009.57;;;33.81;47.25
37170;BME280;23062;13.952;100.608;2023-05-16T13:01:15;1009.58;;;33.80;47.33
37170;BME280;23062;13.952;100.608;2023-05-16T13:05:41;1009.71;;;33.82;47.36
37170;BME280;23062;13.952;100.608;2023-05-16T13:10:08;1009.79;;;33.79;47.52
37170;BME280;23062;13.952;100.608;2023-05-16T13:14:36;1009.81;;;33.78;47.54
37170;BME280;23062;13.952;100.608;2023-05-16T13:19:02;1009.93;;;33.77;47.69
37170;BME280;23062;13.952;100.608;2023-05-16T13:23:28;1010.02;;;33.78;47.76
37170;BME280;23062;13.952;100.608;2023-05-16T13:27:55;1010.01;;;33.77;47.64
37170;BME280;23062;13.952;100.608;2023-05-16T13:32:21;1010.11;;;33.78;47.61
37170;BME280;23062;13.952;100.608;2023-05-16T13:36:48;1010.15;;;33.78;47.45
37170;BME280;23062;13.952;100.608;2023-05-16T13:41:15;1010.15;;;33.75;47.44
37170;BME280;23062;13.952;100.608;2023-05-16T13:45:43;1010.21;;;33.74;47.31
37170;BME280;23062;13.952;100.608;2023-05-16T13:50:19;1010.28;;;33.74;47.32
37170;BME280;23062;13.952;100.608;2023-05-16T13:54:46;1010.31;;;33.76;47.38
37170;BME280;23062;13.952;100.608;2023-05-16T13:59:23;1010.30;;;33.75;47.31
37170;BME280;23062;13.952;100.608;2023-05-16T14:03:53;1010.29;;;33.72;47.63
37170;BME280;23062;13.952;100.608;2023-05-16T14:08:22;1010.35;;;33.73;47.99
37170;BME280;23062;13.952;100.608;2023-05-16T14:12:57;1010.46;;;33.75;48.46
37170;BME280;23062;13.952;100.608;2023-05-16T14:17:21;1010.53;;;33.74;48.96
37170;BME280;23062;13.952;100.608;2023-05-16T14:21:47;1010.63;;;33.72;49.41
37170;BME280;23062;13.952;100.608;2023-05-16T14:26:13;1010.69;;;33.69;49.76
37170;BME280;23062;13.952;100.608;2023-05-16T14:30:39;1010.69;;;33.70;50.13
37170;BME280;23062;13.952;100.608;2023-05-16T14:35:05;1010.74;;;33.69;50.48
37170;BME280;23062;13.952;100.608;2023-05-16T14:39:32;1010.74;;;33.69;50.80
37170;BME280;23062;13.952;100.608;2023-05-16T14:43:57;1010.78;;;33.69;51.12
37170;BME280;23062;13.952;100.608;2023-05-16T14:48:22;1010.81;;;33.69;51.34
37170;BME280;23062;13.952;100.608;2023-05-16T14:52:49;1010.80;;;33.68;51.48
37170;BME280;23062;13.952;100.608;2023-05-16T14:57:22;1010.88;;;33.67;51.61
37170;BME280;23062;13.952;100.608;2023-05-16T15:01:48;1010.91;;;33.67;51.62
37170;BME280;23062;13.952;100.608;2023-05-16T15:06:13;1010.90;;;33.67;51.54
37170;BME280;23062;13.952;100.608;2023-05-16T15:10:42;1010.94;;;33.66;51.72
37170;BME280;23062;13.952;100.608;2023-05-16T15:15:08;1010.95;;;33.67;52.00
37170;BME280;23062;13.952;100.608;2023-05-16T15:19:44;1011.05;;;33.68;52.37
37170;BME280;23062;13.952;100.608;2023-05-16T15:24:11;1011.06;;;33.67;52.88
37170;BME280;23062;13.952;100.608;2023-05-16T15:28:36;1011.03;;;33.65;53.34
37170;BME280;23062;13.952;100.608;2023-05-16T15:33:04;1011.16;;;33.65;53.71
37170;BME280;23062;13.952;100.608;2023-05-16T15:37:43;1011.26;;;33.63;54.04
37170;BME280;23062;13.952;100.608;2023-05-16T15:46:47;1011.39;;;33.65;54.48
37170;BME280;23062;13.952;100.608;2023-05-16T15:51:17;1011.37;;;33.67;54.63
37170;BME280;23062;13.952;100.608;2023-05-16T15:55:44;1011.42;;;33.81;54.53
37170;BME280;23062;13.952;100.608;2023-05-16T16:00:16;1011.37;;;33.93;54.17
37170;BME280;23062;13.952;100.608;2023-05-16T16:04:49;1011.34;;;33.95;54.04
37170;BME280;23062;13.952;100.608;2023-05-16T16:09:15;1011.40;;;33.97;54.08
37170;BME280;23062;13.952;100.608;2023-05-16T16:13:41;1011.37;;;33.99;54.08
37170;BME280;23062;13.952;100.608;2023-05-16T16:18:06;1011.42;;;34.00;54.19
37170;BME280;23062;13.952;100.608;2023-05-16T16:22:33;1011.30;;;34.01;54.16
37170;BME280;23062;13.952;100.608;2023-05-16T16:26:59;1011.25;;;33.99;54.33
37170;BME280;23062;13.952;100.608;2023-05-16T16:31:24;1011.28;;;34.00;54.47
37170;BME280;23062;13.952;100.608;2023-05-16T16:35:51;1011.22;;;33.98;54.47
37170;BME280;23062;13.952;100.608;2023-05-16T16:40:19;1011.16;;;34.00;54.54
37170;BME280;23062;13.952;100.608;2023-05-16T16:44:44;1011.09;;;33.99;54.83
37170;BME280;23062;13.952;100.608;2023-05-16T16:49:18;1011.00;;;33.99;54.98
37170;BME280;23062;13.952;100.608;2023-05-16T16:53:45;1010.91;;;34.00;55.05
37170;BME280;23062;13.952;100.608;2023-05-16T16:58:17;1010.82;;;33.99;55.15
37170;BME280;23062;13.952;100.608;2023-05-16T17:02:45;1010.74;;;33.99;55.38
37170;BME280;23062;13.952;100.608;2023-05-16T17:07:11;1010.71;;;33.98;55.58
37170;BME280;23062;13.952;100.608;2023-05-16T17:11:40;1010.61;;;33.98;55.36
37170;BME280;23062;13.952;100.608;2023-05-16T17:16:08;1010.54;;;33.97;55.82
37170;BME280;23062;13.952;100.608;2023-05-16T17:20:34;1010.56;;;33.97;56.04
37170;BME280;23062;13.952;100.608;2023-05-16T17:25:01;1010.44;;;33.97;56.03
37170;BME280;23062;13.952;100.608;2023-05-16T17:29:28;1010.51;;;33.97;56.26
37170;BME280;23062;13.952;100.608;2023-05-16T17:33:54;1010.49;;;33.97;56.77
37170;BME280;23062;13.952;100.608;2023-05-16T17:38:21;1010.51;;;33.97;56.60
37170;BME280;23062;13.952;100.608;2023-05-16T17:42:53;1010.44;;;33.95;56.50
37170;BME280;23062;13.952;100.608;2023-05-16T17:47:19;1010.36;;;33.95;56.99
37170;BME280;23062;13.952;100.608;2023-05-16T17:51:49;1010.38;;;33.95;57.24
37170;BME280;23062;13.952;100.608;2023-05-16T17:56:18;1010.26;;;33.94;57.12
37170;BME280;23062;13.952;100.608;2023-05-16T18:00:42;1010.22;;;33.94;56.97
37170;BME280;23062;13.952;100.608;2023-05-16T18:05:11;1010.13;;;33.95;57.29
37170;BME280;23062;13.952;100.608;2023-05-16T18:09:45;1010.08;;;33.93;57.54
37170;BME280;23062;13.952;100.608;2023-05-16T18:14:13;1009.99;;;33.94;57.67
37170;BME280;23062;13.952;100.608;2023-05-16T18:18:41;1009.95;;;33.90;57.24
37170;BME280;23062;13.952;100.608;2023-05-16T18:23:07;1010.07;;;33.94;57.44
37170;BME280;23062;13.952;100.608;2023-05-16T18:27:33;1010.05;;;33.94;57.70
37170;BME280;23062;13.952;100.608;2023-05-16T18:32:03;1009.99;;;33.94;57.71
37170;BME280;23062;13.952;100.608;2023-05-16T18:36:28;1009.92;;;33.93;57.84
37170;BME280;23062;13.952;100.608;2023-05-16T18:40:55;1009.90;;;33.93;57.80
37170;BME280;23062;13.952;100.608;2023-05-16T18:45:21;1009.87;;;33.91;57.65
37170;BME280;23062;13.952;100.608;2023-05-16T18:49:47;1009.80;;;33.93;57.75
37170;BME280;23062;13.952;100.608;2023-05-16T18:54:13;1009.82;;;33.90;58.07
37170;BME280;23062;13.952;100.608;2023-05-16T18:58:38;1009.85;;;33.89;57.86
37170;BME280;23062;13.952;100.608;2023-05-16T19:03:05;1009.87;;;33.88;57.96
37170;BME280;23062;13.952;100.608;2023-05-16T19:07:32;1009.85;;;33.86;57.90
37170;BME280;23062;13.952;100.608;2023-05-16T19:12:01;1009.82;;;33.86;57.37
37170;BME280;23062;13.952;100.608;2023-05-16T19:16:32;1009.82;;;33.81;57.49
37170;BME280;23062;13.952;100.608;2023-05-16T19:20:58;1009.76;;;33.81;57.44
37170;BME280;23062;13.952;100.608;2023-05-16T19:25:26;1009.67;;;33.80;57.30
37170;BME280;23062;13.952;100.608;2023-05-16T19:29:58;1009.71;;;33.80;57.06
37170;BME280;23062;13.952;100.608;2023-05-16T19:34:21;1009.70;;;33.78;57.00
37170;BME280;23062;13.952;100.608;2023-05-16T19:38:58;1009.71;;;33.80;56.75
37170;BME280;23062;13.952;100.608;2023-05-16T19:43:37;1009.64;;;33.77;56.69
37170;BME280;23062;13.952;100.608;2023-05-16T19:48:03;1009.55;;;33.76;56.59
37170;BME280;23062;13.952;100.608;2023-05-16T19:52:30;1009.53;;;33.75;56.40
37170;BME280;23062;13.952;100.608;2023-05-16T19:56:56;1009.49;;;33.75;56.25
37170;BME280;23062;13.952;100.608;2023-05-16T20:01:24;1009.43;;;33.71;56.01
37170;BME280;23062;13.952;100.608;2023-05-16T20:05:50;1009.41;;;33.71;55.59
37170;BME280;23062;13.952;100.608;2023-05-16T20:10:17;1009.50;;;33.70;55.14
37170;BME280;23062;13.952;100.608;2023-05-16T20:14:43;1009.47;;;33.68;54.40
37170;BME280;23062;13.952;100.608;2023-05-16T20:19:09;1009.55;;;33.64;54.34
37170;BME280;23062;13.952;100.608;2023-05-16T20:23:43;1009.66;;;33.60;53.79
37170;BME280;23062;13.952;100.608;2023-05-16T20:28:08;1009.64;;;33.58;53.73
37170;BME280;23062;13.952;100.608;2023-05-16T20:32:35;1009.60;;;33.58;53.75
37170;BME280;23062;13.952;100.608;2023-05-16T20:37:04;1009.58;;;33.55;53.60
37170;BME280;23062;13.952;100.608;2023-05-16T20:41:31;1009.60;;;33.58;53.44
37170;BME280;23062;13.952;100.608;2023-05-16T20:45:58;1009.56;;;33.53;53.43
37170;BME280;23062;13.952;100.608;2023-05-16T20:50:27;1009.62;;;33.53;53.41
37170;BME280;23062;13.952;100.608;2023-05-16T20:54:55;1009.61;;;33.50;53.37
37170;BME280;23062;13.952;100.608;2023-05-16T20:59:26;1009.67;;;33.50;53.39
37170;BME280;23062;13.952;100.608;2023-05-16T21:08:40;1009.70;;;33.20;53.50
37170;BME280;23062;13.952;100.608;2023-05-16T21:13:07;1009.74;;;33.01;53.69
37170;BME280;23062;13.952;100.608;2023-05-16T21:17:38;1009.76;;;32.92;53.88
37170;BME280;23062;13.952;100.608;2023-05-16T21:22:06;1009.82;;;32.88;53.85
37170;BME280;23062;13.952;100.608;2023-05-16T21:26:34;1009.82;;;32.84;54.01
37170;BME280;23062;13.952;100.608;2023-05-16T21:31:02;1009.79;;;32.81;54.12
37170;BME280;23062;13.952;100.608;2023-05-16T21:40:03;1009.94;;;32.70;54.86
37170;BME280;23062;13.952;100.608;2023-05-16T21:44:30;1009.92;;;32.73;54.59
37170;BME280;23062;13.952;100.608;2023-05-16T21:48:56;1009.82;;;32.69;54.56
37170;BME280;23062;13.952;100.608;2023-05-16T21:53:29;1009.76;;;32.55;54.81
37170;BME280;23062;13.952;100.608;2023-05-16T21:58:02;1009.74;;;32.49;55.11
37170;BME280;23062;13.952;100.608;2023-05-16T22:02:31;1009.77;;;32.47;54.94
37170;BME280;23062;13.952;100.608;2023-05-16T22:11:34;1009.77;;;32.47;55.01
37170;BME280;23062;13.952;100.608;2023-05-16T22:16:04;1009.78;;;32.44;54.56
37170;BME280;23062;13.952;100.608;2023-05-16T22:20:30;1009.73;;;32.43;54.24
37170;BME280;23062;13.952;100.608;2023-05-16T22:24:56;1009.72;;;32.38;55.20
37170;BME280;23062;13.952;100.608;2023-05-16T22:29:21;1009.71;;;32.33;55.12
37170;BME280;23062;13.952;100.608;2023-05-16T22:33:47;1009.82;;;32.31;55.15
37170;BME280;23062;13.952;100.608;2023-05-16T22:38:13;1009.78;;;32.32;55.13
37170;BME280;23062;13.952;100.608;2023-05-16T22:42:39;1009.78;;;32.33;54.96
37170;BME280;23062;13.952;100.608;2023-05-16T22:47:05;1009.89;;;32.36;54.21
37170;BME280;23062;13.952;100.608;2023-05-16T22:51:31;1009.86;;;32.30;54.18
37170;BME280;23062;13.952;100.608;2023-05-16T22:55:57;1009.92;;;32.27;54.53
37170;BME280;23062;13.952;100.608;2023-05-16T23:00:23;1010.01;;;32.22;54.85
37170;BME280;23062;13.952;100.608;2023-05-16T23:04:49;1010.17;;;32.19;54.73
37170;BME280;23062;13.952;100.608;2023-05-16T23:09:19;1010.31;;;32.18;54.65
37170;BME280;23062;13.952;100.608;2023-05-16T23:13:45;1010.41;;;32.20;54.38
37170;BME280;23062;13.952;100.608;2023-05-16T23:18:11;1010.54;;;32.18;54.54
37170;BME280;23062;13.952;100.608;2023-05-16T23:22:37;1010.67;;;32.19;54.43
37170;BME280;23062;13.952;100.608;2023-05-16T23:27:05;1010.57;;;32.16;54.53
37170;BME280;23062;13.952;100.608;2023-05-16T23:31:30;1010.61;;;32.16;54.38
37170;BME280;23062;13.952;100.608;2023-05-16T23:35:56;1010.76;;;32.16;54.54
37170;BME280;23062;13.952;100.608;2023-05-16T23:40:23;1010.79;;;32.18;55.08
37170;BME280;23062;13.952;100.608;2023-05-16T23:44:49;1010.80;;;32.19;54.49
37170;BME280;23062;13.952;100.608;2023-05-16T23:49:15;1011.03;;;32.20;55.06
37170;BME280;23062;13.952;100.608;2023-05-16T23:53:45;1011.19;;;32.21;54.89
37170;BME280;23062;13.952;100.608;2023-05-16T23:58:14;1011.22;;;32.24;54.92
